sensor_id;sensor_type;location;lat;lon;timestamp;pressure;altitude;pressure_sealevel;temperature;humidity
72892;BME280;61032;50.782;6.818;2023-10-09T00:00:15;101032.38;;;15.48;81.83
72892;BME280;61032;50.782;6.818;2023-10-09T00:01:51;101031.56;;;15.47;81.76
72892;BME280;61032;50.782;6.818;2023-10-09T00:02:52;101028.69;;;15.44;81.40
72892;BME280;61032;50.782;6.818;2023-10-09T00:03:53;101033.06;;;15.45;81.71
72892;BME280;61032;50.782;6.818;2023-10-09T00:04:55;101036.75;;;15.49;81.97
72892;BME280;61032;50.782;6.818;2023-10-09T00:05:57;101034.44;;;15.51;81.56
72892;BME280;61032;50.782;6.818;2023-10-09T00:06:57;101034.09;;;15.53;82.19
72892;BME280;61032;50.782;6.818;2023-10-09T00:07:59;101036.88;;;15.53;81.69
72892;BME280;61032;50.782;6.818;2023-10-09T00:08:59;101038.13;;;15.55;81.52
72892;BME280;61032;50.782;6.818;2023-10-09T00:10:11;101035.38;;;15.55;81.43
72892;BME280;61032;50.782;6.818;2023-10-09T00:11:12;101035.38;;;15.55;81.36
72892;BME280;61032;50.782;6.818;2023-10-09T00:12:20;101043.34;;;15.57;81.37
72892;BME280;61032;50.782;6.818;2023-10-09T00:13:24;101038.63;;;15.57;81.37
72892;BME280;61032;50.782;6.818;2023-10-09T00:14:31;101037.81;;;15.57;81.51
72892;BME280;61032;50.782;6.818;2023-10-09T00:15:38;101037.00;;;15.56;81.26
72892;BME280;61032;50.782;6.818;2023-10-09T00:16:39;101030.31;;;15.57;81.24
72892;BME280;61032;50.782;6.818;2023-10-09T00:17:49;101023.97;;;15.57;81.49
72892;BME280;61032;50.782;6.818;2023-10-09T00:18:52;101027.53;;;15.57;81.13
72892;BME280;61032;50.782;6.818;2023-10-09T00:19:53;101026.38;;;15.58;81.30
72892;BME280;61032;50.782;6.818;2023-10-09T00:21:00;101029.81;;;15.55;81.54
72892;BME280;61032;50.782;6.818;2023-10-09T00:22:13;101030.97;;;15.54;81.36
72892;BME280;61032;50.782;6.818;2023-10-09T00:23:27;101030.66;;;15.56;81.64
72892;BME280;61032;50.782;6.818;2023-10-09T00:24:27;101033.88;;;15.58;81.46
72892;BME280;61032;50.782;6.818;2023-10-09T00:25:28;101028.69;;;15.56;81.30
72892;BME280;61032;50.782;6.818;2023-10-09T00:26:30;101030.97;;;15.54;81.18
72892;BME280;61032;50.782;6.818;2023-10-09T00:27:43;101033.09;;;15.57;81.32
72892;BME280;61032;50.782;6.818;2023-10-09T00:28:44;101028.44;;;15.61;81.31
72892;BME280;61032;50.782;6.818;2023-10-09T00:29:46;101029.97;;;15.59;80.93
72892;BME280;61032;50.782;6.818;2023-10-09T00:30:48;101024.41;;;15.59;80.63
72892;BME280;61032;50.782;6.818;2023-10-09T00:33:03;101030.03;;;15.62;80.99
72892;BME280;61032;50.782;6.818;2023-10-09T00:34:07;101031.19;;;15.61;81.01
72892;BME280;61032;50.782;6.818;2023-10-09T00:35:07;101028.44;;;15.61;81.00
72892;BME280;61032;50.782;6.818;2023-10-09T00:36:33;101032.34;;;15.60;80.91
72892;BME280;61032;50.782;6.818;2023-10-09T00:37:49;101021.28;;;15.60;81.04
72892;BME280;61032;50.782;6.818;2023-10-09T00:38:55;101023.34;;;15.63;81.06
72892;BME280;61032;50.782;6.818;2023-10-09T00:39:59;101028.44;;;15.61;80.88
72892;BME280;61032;50.782;6.818;2023-10-09T00:41:00;101029.22;;;15.62;80.99
72892;BME280;61032;50.782;6.818;2023-10-09T00:42:12;101021.72;;;15.62;80.92
72892;BME280;61032;50.782;6.818;2023-10-09T00:43:14;101021.28;;;15.60;80.65
72892;BME280;61032;50.782;6.818;2023-10-09T00:44:14;101018.88;;;15.59;80.81
72892;BME280;61032;50.782;6.818;2023-10-09T00:45:15;101024.78;;;15.57;80.96
72892;BME280;61032;50.782;6.818;2023-10-09T00:46:27;101021.03;;;15.53;80.87
72892;BME280;61032;50.782;6.818;2023-10-09T00:47:27;101019.88;;;15.54;81.08
72892;BME280;61032;50.782;6.818;2023-10-09T00:48:34;101020.25;;;15.53;81.04
72892;BME280;61032;50.782;6.818;2023-10-09T00:49:40;101014.84;;;15.56;81.12
72892;BME280;61032;50.782;6.818;2023-10-09T00:50:43;101009.03;;;15.61;80.91
72892;BME280;61032;50.782;6.818;2023-10-09T00:51:52;101000.25;;;15.59;80.60
72892;BME280;61032;50.782;6.818;2023-10-09T00:52:57;101006.97;;;15.58;80.88
72892;BME280;61032;50.782;6.818;2023-10-09T00:54:04;101004.63;;;15.60;80.90
72892;BME280;61032;50.782;6.818;2023-10-09T00:55:13;100998.22;;;15.56;80.71
72892;BME280;61032;50.782;6.818;2023-10-09T00:56:14;100989.53;;;15.58;80.84
72892;BME280;61032;50.782;6.818;2023-10-09T00:57:29;101000.16;;;15.56;80.76
72892;BME280;61032;50.782;6.818;2023-10-09T00:58:31;100999.09;;;15.60;80.52
72892;BME280;61032;50.782;6.818;2023-10-09T00:59:37;100994.81;;;15.63;80.62
72892;BME280;61032;50.782;6.818;2023-10-09T01:00:41;100998.41;;;15.63;80.57
72892;BME280;61032;50.782;6.818;2023-10-09T01:01:44;100994.47;;;15.64;80.51
72892;BME280;61032;50.782;6.818;2023-10-09T01:02:57;100992.03;;;15.63;80.30
72892;BME280;61032;50.782;6.818;2023-10-09T01:04:11;100997.59;;;15.63;80.25
72892;BME280;61032;50.782;6.818;2023-10-09T01:05:15;100992.03;;;15.63;80.40
72892;BME280;61032;50.782;6.818;2023-10-09T01:06:19;100988.13;;;15.64;80.14
72892;BME280;61032;50.782;6.818;2023-10-09T01:07:27;100990.53;;;15.65;80.06
72892;BME280;61032;50.782;6.818;2023-10-09T01:08:31;100988.13;;;15.64;79.97
72892;BME280;61032;50.782;6.818;2023-10-09T01:09:40;100986.38;;;15.59;80.28
72892;BME280;61032;50.782;6.818;2023-10-09T01:10:47;100988.00;;;15.60;80.21
72892;BME280;61032;50.782;6.818;2023-10-09T01:11:52;100992.31;;;15.58;80.10
72892;BME280;61032;50.782;6.818;2023-10-09T01:13:01;100991.16;;;15.59;80.49
72892;BME280;61032;50.782;6.818;2023-10-09T01:14:03;100989.53;;;15.58;80.16
72892;BME280;61032;50.782;6.818;2023-10-09T01:15:09;100992.19;;;15.54;80.35
72892;BME280;61032;50.782;6.818;2023-10-09T01:16:24;100985.16;;;15.57;80.19
72892;BME280;61032;50.782;6.818;2023-10-09T01:17:24;100985.47;;;15.55;80.10
72892;BME280;61032;50.782;6.818;2023-10-09T01:18:35;100978.31;;;15.54;80.37
72892;BME280;61032;50.782;6.818;2023-10-09T01:19:38;100992.66;;;15.56;80.22
72892;BME280;61032;50.782;6.818;2023-10-09T01:20:39;100991.72;;;15.52;80.24
72892;BME280;61032;50.782;6.818;2023-10-09T01:21:45;100993.34;;;15.53;80.50
72892;BME280;61032;50.782;6.818;2023-10-09T01:22:46;100987.34;;;15.51;80.33
72892;BME280;61032;50.782;6.818;2023-10-09T01:23:47;100977.84;;;15.52;80.32
72892;BME280;61032;50.782;6.818;2023-10-09T01:25:02;100978.09;;;15.47;80.04
72892;BME280;61032;50.782;6.818;2023-10-09T01:26:06;100974.97;;;15.48;80.52
72892;BME280;61032;50.782;6.818;2023-10-09T01:27:06;100971.41;;;15.48;80.23
72892;BME280;61032;50.782;6.818;2023-10-09T01:28:15;100976.47;;;15.46;80.27
72892;BME280;61032;50.782;6.818;2023-10-09T01:29:18;100980.06;;;15.46;80.28
72892;BME280;61032;50.782;6.818;2023-10-09T01:30:21;100983.63;;;15.47;80.21
72892;BME280;61032;50.782;6.818;2023-10-09T01:31:24;100988.50;;;15.50;80.29
72892;BME280;61032;50.782;6.818;2023-10-09T01:32:26;100984.34;;;15.44;80.19
72892;BME280;61032;50.782;6.818;2023-10-09T01:33:27;100978.34;;;15.42;79.96
72892;BME280;61032;50.782;6.818;2023-10-09T01:34:32;100972.78;;;15.42;80.12
72892;BME280;61032;50.782;6.818;2023-10-09T01:35:41;100979.03;;;15.39;80.24
72892;BME280;61032;50.782;6.818;2023-10-09T01:36:48;100980.22;;;15.38;80.55
72892;BME280;61032;50.782;6.818;2023-10-09T01:37:49;100978.59;;;15.37;80.58
72892;BME280;61032;50.782;6.818;2023-10-09T01:38:51;100976.53;;;15.34;80.54
72892;BME280;61032;50.782;6.818;2023-10-09T01:39:55;100975.16;;;15.28;80.71
72892;BME280;61032;50.782;6.818;2023-10-09T01:40:59;100973.88;;;15.25;80.79
72892;BME280;61032;50.782;6.818;2023-10-09T01:42:07;100973.19;;;15.28;80.93
72892;BME280;61032;50.782;6.818;2023-10-09T01:43:09;100967.75;;;15.32;80.76
72892;BME280;61032;50.782;6.818;2023-10-09T01:44:10;100968.13;;;15.30;80.57
72892;BME280;61032;50.782;6.818;2023-10-09T01:45:13;100966.16;;;15.31;80.92
72892;BME280;61032;50.782;6.818;2023-10-09T01:46:16;100965.81;;;15.32;80.70
72892;BME280;61032;50.782;6.818;2023-10-09T01:47:19;100965.00;;;15.32;80.40
72892;BME280;61032;50.782;6.818;2023-10-09T01:48:21;100962.22;;;15.32;80.59
72892;BME280;61032;50.782;6.818;2023-10-09T01:49:24;100955.19;;;15.34;80.49
72892;BME280;61032;50.782;6.818;2023-10-09T01:50:33;100957.94;;;15.34;80.57
72892;BME280;61032;50.782;6.818;2023-10-09T01:51:35;100953.66;;;15.37;80.78
72892;BME280;61032;50.782;6.818;2023-10-09T01:52:38;100950.09;;;15.36;80.37
72892;BME280;61032;50.782;6.818;2023-10-09T01:53:38;100948.56;;;15.39;80.82
72892;BME280;61032;50.782;6.818;2023-10-09T01:54:39;100961.59;;;15.38;80.47
72892;BME280;61032;50.782;6.818;2023-10-09T01:55:46;100949.97;;;15.33;80.63
72892;BME280;61032;50.782;6.818;2023-10-09T01:56:46;100956.78;;;15.35;80.50
72892;BME280;61032;50.782;6.818;2023-10-09T01:57:47;100948.56;;;15.39;80.33
72892;BME280;61032;50.782;6.818;2023-10-09T01:58:47;100946.97;;;15.38;80.45
72892;BME280;61032;50.782;6.818;2023-10-09T01:59:50;100950.16;;;15.40;80.25
72892;BME280;61032;50.782;6.818;2023-10-09T02:00:53;100947.50;;;15.43;80.35
72892;BME280;61032;50.782;6.818;2023-10-09T02:01:56;100949.47;;;15.43;80.17
72892;BME280;61032;50.782;6.818;2023-10-09T02:02:58;100948.56;;;15.39;80.43
72892;BME280;61032;50.782;6.818;2023-10-09T02:04:04;100941.31;;;15.34;80.53
72892;BME280;61032;50.782;6.818;2023-10-09T02:05:11;100943.28;;;15.34;80.94
72892;BME280;61032;50.782;6.818;2023-10-09T02:06:14;100949.97;;;15.33;80.72
72892;BME280;61032;50.782;6.818;2023-10-09T02:07:25;100941.09;;;15.27;81.01
72892;BME280;61032;50.782;6.818;2023-10-09T02:08:29;100947.56;;;15.31;81.05
72892;BME280;61032;50.782;6.818;2023-10-09T02:09:30;100950.34;;;15.31;81.26
72892;BME280;61032;50.782;6.818;2023-10-09T02:10:32;100945.59;;;15.32;80.87
72892;BME280;61032;50.782;6.818;2023-10-09T02:11:37;100955.06;;;15.31;80.87
72892;BME280;61032;50.782;6.818;2023-10-09T02:12:41;100961.88;;;15.33;81.28
72892;BME280;61032;50.782;6.818;2023-10-09T02:13:42;100958.75;;;15.35;81.15
72892;BME280;61032;50.782;6.818;2023-10-09T02:14:42;100960.59;;;15.31;80.72
72892;BME280;61032;50.782;6.818;2023-10-09T02:15:44;100967.31;;;15.30;81.14
72892;BME280;61032;50.782;6.818;2023-10-09T02:16:51;100958.28;;;15.33;81.04
72892;BME280;61032;50.782;6.818;2023-10-09T02:18:06;100965.34;;;15.30;81.18
72892;BME280;61032;50.782;6.818;2023-10-09T02:19:30;100964.19;;;15.31;81.39
72892;BME280;61032;50.782;6.818;2023-10-09T02:20:34;100960.59;;;15.31;81.17
72892;BME280;61032;50.782;6.818;2023-10-09T02:21:37;100963.84;;;15.33;81.21
72892;BME280;61032;50.782;6.818;2023-10-09T02:22:41;100961.06;;;15.33;81.09
72892;BME280;61032;50.782;6.818;2023-10-09T02:23:42;100962.69;;;15.34;80.96
72892;BME280;61032;50.782;6.818;2023-10-09T02:24:49;100963.13;;;15.36;81.08
72892;BME280;61032;50.782;6.818;2023-10-09T02:25:58;100960.38;;;15.36;80.94
72892;BME280;61032;50.782;6.818;2023-10-09T02:27:06;100961.97;;;15.37;80.86
72892;BME280;61032;50.782;6.818;2023-10-09T02:28:06;100956.44;;;15.37;80.68
72892;BME280;61032;50.782;6.818;2023-10-09T02:29:07;100965.09;;;15.35;80.83
72892;BME280;61032;50.782;6.818;2023-10-09T02:30:07;100956.06;;;15.38;80.66
72892;BME280;61032;50.782;6.818;2023-10-09T02:31:27;100952.06;;;15.36;80.69
72892;BME280;61032;50.782;6.818;2023-10-09T02:32:44;100959.44;;;15.32;81.35
72892;BME280;61032;50.782;6.818;2023-10-09T02:33:44;100954.38;;;15.34;80.92
72892;BME280;61032;50.782;6.818;2023-10-09T02:34:45;100957.13;;;15.34;80.55
72892;BME280;61032;50.782;6.818;2023-10-09T02:35:46;100954.72;;;15.32;80.94
72892;BME280;61032;50.782;6.818;2023-10-09T02:36:51;100960.59;;;15.31;80.88
72892;BME280;61032;50.782;6.818;2023-10-09T02:37:57;100958.75;;;15.35;80.80
72892;BME280;61032;50.782;6.818;2023-10-09T02:38:58;100958.41;;;15.36;80.57
72892;BME280;61032;50.782;6.818;2023-10-09T02:39:59;100962.41;;;15.39;80.86
72892;BME280;61032;50.782;6.818;2023-10-09T02:41:04;100966.00;;;15.39;80.68
72892;BME280;61032;50.782;6.818;2023-10-09T02:42:04;100960.56;;;15.43;80.57
72892;BME280;61032;50.782;6.818;2023-10-09T02:43:19;100964.13;;;15.43;80.46
72892;BME280;61032;50.782;6.818;2023-10-09T02:44:19;100958.25;;;15.45;80.57
72892;BME280;61032;50.782;6.818;2023-10-09T02:45:24;100965.41;;;15.46;79.90
72892;BME280;61032;50.782;6.818;2023-10-09T02:46:25;100961.38;;;15.43;80.30
72892;BME280;61032;50.782;6.818;2023-10-09T02:47:31;100961.00;;;15.45;80.36
72892;BME280;61032;50.782;6.818;2023-10-09T02:48:38;100957.91;;;15.46;80.10
72892;BME280;61032;50.782;6.818;2023-10-09T02:49:42;100952.00;;;15.48;80.10
72892;BME280;61032;50.782;6.818;2023-10-09T02:50:43;100954.88;;;15.52;79.78
72892;BME280;61032;50.782;6.818;2023-10-09T02:51:45;100956.84;;;15.51;80.00
72892;BME280;61032;50.782;6.818;2023-10-09T02:52:52;100956.03;;;15.51;80.18
72892;BME280;61032;50.782;6.818;2023-10-09T02:54:03;100939.41;;;15.51;79.93
72892;BME280;61032;50.782;6.818;2023-10-09T02:55:08;100953.97;;;15.47;79.84
72892;BME280;61032;50.782;6.818;2023-10-09T02:56:12;100949.22;;;15.48;79.86
72892;BME280;61032;50.782;6.818;2023-10-09T02:57:13;100948.88;;;15.50;80.19
72892;BME280;61032;50.782;6.818;2023-10-09T02:58:23;100944.94;;;15.51;79.87
72892;BME280;61032;50.782;6.818;2023-10-09T02:59:24;100942.19;;;15.51;79.71
72892;BME280;61032;50.782;6.818;2023-10-09T03:00:24;100945.66;;;15.47;80.00
72892;BME280;61032;50.782;6.818;2023-10-09T03:01:31;100942.44;;;15.45;80.10
72892;BME280;61032;50.782;6.818;2023-10-09T03:02:31;100945.66;;;15.47;79.92
72892;BME280;61032;50.782;6.818;2023-10-09T03:03:32;100954.31;;;15.46;79.92
72892;BME280;61032;50.782;6.818;2023-10-09T03:04:35;100955.59;;;15.48;80.01
72892;BME280;61032;50.782;6.818;2023-10-09T03:05:37;100945.75;;;15.51;79.79
72892;BME280;61032;50.782;6.818;2023-10-09T03:06:42;100943.78;;;15.52;79.75
72892;BME280;61032;50.782;6.818;2023-10-09T03:07:51;100956.38;;;15.49;79.88
72892;BME280;61032;50.782;6.818;2023-10-09T03:08:53;100943.34;;;15.50;79.89
72892;BME280;61032;50.782;6.818;2023-10-09T03:09:55;100952.81;;;15.48;80.00
72892;BME280;61032;50.782;6.818;2023-10-09T03:10:55;100947.63;;;15.47;80.19
72892;BME280;61032;50.782;6.818;2023-10-09T03:12:02;100950.50;;;15.51;80.14
72892;BME280;61032;50.782;6.818;2023-10-09T03:13:03;100946.91;;;15.50;80.02
72892;BME280;61032;50.782;6.818;2023-10-09T03:14:06;100951.75;;;15.53;80.00
72892;BME280;61032;50.782;6.818;2023-10-09T03:15:07;100940.69;;;15.53;79.73
72892;BME280;61032;50.782;6.818;2023-10-09T03:16:09;100949.44;;;15.55;79.97
72892;BME280;61032;50.782;6.818;2023-10-09T03:17:28;100950.50;;;15.51;80.03
72892;BME280;61032;50.782;6.818;2023-10-09T03:18:29;100948.53;;;15.51;79.95
72892;BME280;61032;50.782;6.818;2023-10-09T03:19:33;100947.38;;;15.52;79.93
72892;BME280;61032;50.782;6.818;2023-10-09T03:20:37;100950.50;;;15.51;80.17
72892;BME280;61032;50.782;6.818;2023-10-09T03:21:37;100943.00;;;15.51;80.29
72892;BME280;61032;50.782;6.818;2023-10-09T03:22:38;100944.03;;;15.46;79.99
72892;BME280;61032;50.782;6.818;2023-10-09T03:23:39;100930.63;;;15.48;80.52
72892;BME280;61032;50.782;6.818;2023-10-09T03:24:40;100937.00;;;15.49;80.53
72892;BME280;61032;50.782;6.818;2023-10-09T03:25:45;100940.81;;;15.44;80.55
72892;BME280;61032;50.782;6.818;2023-10-09T03:26:45;100937.00;;;15.49;80.56
72892;BME280;61032;50.782;6.818;2023-10-09T03:27:46;100929.13;;;15.51;80.36
72892;BME280;61032;50.782;6.818;2023-10-09T03:28:47;100942.63;;;15.53;80.19
72892;BME280;61032;50.782;6.818;2023-10-09T03:29:48;100929.94;;;15.52;80.37
72892;BME280;61032;50.782;6.818;2023-10-09T03:30:53;100938.72;;;15.54;80.33
72892;BME280;61032;50.782;6.818;2023-10-09T03:31:54;100928.44;;;15.54;80.25
72892;BME280;61032;50.782;6.818;2023-10-09T03:32:56;100931.19;;;15.54;80.07
72892;BME280;61032;50.782;6.818;2023-10-09T03:33:57;100938.84;;;15.57;80.33
72892;BME280;61032;50.782;6.818;2023-10-09T03:34:57;100938.34;;;15.55;80.32
72892;BME280;61032;50.782;6.818;2023-10-09T03:36:00;100936.06;;;15.57;80.24
72892;BME280;61032;50.782;6.818;2023-10-09T03:37:00;100947.59;;;15.59;80.20
72892;BME280;61032;50.782;6.818;2023-10-09T03:38:20;100946.22;;;15.53;80.14
72892;BME280;61032;50.782;6.818;2023-10-09T03:39:21;100942.63;;;15.53;80.26
72892;BME280;61032;50.782;6.818;2023-10-09T03:40:36;100941.84;;;15.52;80.30
72892;BME280;61032;50.782;6.818;2023-10-09T03:41:39;100939.50;;;15.54;80.11
72892;BME280;61032;50.782;6.818;2023-10-09T03:42:42;100943.44;;;15.53;80.13
72892;BME280;61032;50.782;6.818;2023-10-09T03:43:42;100943.78;;;15.52;80.29
72892;BME280;61032;50.782;6.818;2023-10-09T03:44:43;100951.31;;;15.51;80.16
72892;BME280;61032;50.782;6.818;2023-10-09T03:45:48;100949.00;;;15.53;80.18
72892;BME280;61032;50.782;6.818;2023-10-09T03:46:57;100947.72;;;15.51;80.21
72892;BME280;61032;50.782;6.818;2023-10-09T03:47:57;100950.16;;;15.52;80.25
72892;BME280;61032;50.782;6.818;2023-10-09T03:49:02;100951.66;;;15.50;80.27
72892;BME280;61032;50.782;6.818;2023-10-09T03:50:10;100947.97;;;15.45;80.69
72892;BME280;61032;50.782;6.818;2023-10-09T03:51:29;100946.00;;;15.46;80.84
72892;BME280;61032;50.782;6.818;2023-10-09T03:52:30;100952.69;;;15.45;80.77
72892;BME280;61032;50.782;6.818;2023-10-09T03:53:31;100943.13;;;15.42;80.98
72892;BME280;61032;50.782;6.818;2023-10-09T03:54:31;100947.50;;;15.43;80.95
72892;BME280;61032;50.782;6.818;2023-10-09T03:55:36;100950.63;;;15.42;80.72
72892;BME280;61032;50.782;6.818;2023-10-09T03:56:38;100940.69;;;15.41;80.85
72892;BME280;61032;50.782;6.818;2023-10-09T03:57:38;100936.78;;;15.42;81.24
72892;BME280;61032;50.782;6.818;2023-10-09T03:58:44;100941.84;;;15.40;81.44
72892;BME280;61032;50.782;6.818;2023-10-09T03:59:45;100937.84;;;15.37;81.50
72892;BME280;61032;50.782;6.818;2023-10-09T04:00:47;100944.63;;;15.40;81.78
72892;BME280;61032;50.782;6.818;2023-10-09T04:01:49;100935.63;;;15.43;81.70
72892;BME280;61032;50.782;6.818;2023-10-09T04:02:57;100940.81;;;15.44;81.47
72892;BME280;61032;50.782;6.818;2023-10-09T04:03:59;100942.78;;;15.44;81.80
72892;BME280;61032;50.782;6.818;2023-10-09T04:05:04;100945.53;;;15.44;81.85
72892;BME280;61032;50.782;6.818;2023-10-09T04:06:07;100951.91;;;15.44;81.53
72892;BME280;61032;50.782;6.818;2023-10-09T04:07:10;100955.47;;;15.45;81.83
72892;BME280;61032;50.782;6.818;2023-10-09T04:08:12;100962.16;;;15.44;81.79
72892;BME280;61032;50.782;6.818;2023-10-09T04:09:28;100955.38;;;15.41;81.90
72892;BME280;61032;50.782;6.818;2023-10-09T04:10:35;100954.31;;;15.46;81.81
72892;BME280;61032;50.782;6.818;2023-10-09T04:11:53;100943.69;;;15.48;81.83
72892;BME280;61032;50.782;6.818;2023-10-09T04:13:12;100944.84;;;15.47;81.90
72892;BME280;61032;50.782;6.818;2023-10-09T04:14:16;100951.66;;;15.50;81.76
72892;BME280;61032;50.782;6.818;2023-10-09T04:15:32;100944.38;;;15.45;81.77
72892;BME280;61032;50.782;6.818;2023-10-09T04:16:35;100935.72;;;15.46;81.82
72892;BME280;61032;50.782;6.818;2023-10-09T04:17:51;100937.69;;;15.46;82.07
72892;BME280;61032;50.782;6.818;2023-10-09T04:18:51;100937.69;;;15.46;81.83
72892;BME280;61032;50.782;6.818;2023-10-09T04:19:52;100945.53;;;15.44;81.85
72892;BME280;61032;50.782;6.818;2023-10-09T04:21:11;100942.31;;;15.42;82.33
72892;BME280;61032;50.782;6.818;2023-10-09T04:22:30;100942.78;;;15.44;82.47
72892;BME280;61032;50.782;6.818;2023-10-09T04:23:39;100935.28;;;15.44;82.08
72892;BME280;61032;50.782;6.818;2023-10-09T04:24:58;100935.50;;;15.39;82.38
72892;BME280;61032;50.782;6.818;2023-10-09T04:25:58;100934.00;;;15.42;82.56
72892;BME280;61032;50.782;6.818;2023-10-09T04:27:00;100932.84;;;15.43;82.63
72892;BME280;61032;50.782;6.818;2023-10-09T04:28:03;100939.31;;;15.47;82.42
72892;BME280;61032;50.782;6.818;2023-10-09T04:29:16;100937.69;;;15.46;82.17
72892;BME280;61032;50.782;6.818;2023-10-09T04:30:26;100936.19;;;15.48;81.89
72892;BME280;61032;50.782;6.818;2023-10-09T04:31:26;100928.91;;;15.44;82.44
72892;BME280;61032;50.782;6.818;2023-10-09T04:32:32;100931.00;;;15.47;82.41
72892;BME280;61032;50.782;6.818;2023-10-09T04:33:34;100939.31;;;15.47;82.00
72892;BME280;61032;50.782;6.818;2023-10-09T04:34:42;100937.78;;;15.50;82.12
72892;BME280;61032;50.782;6.818;2023-10-09T04:35:48;100931.91;;;15.51;82.30
72892;BME280;61032;50.782;6.818;2023-10-09T04:37:09;100939.41;;;15.51;82.00
72892;BME280;61032;50.782;6.818;2023-10-09T04:38:15;100937.09;;;15.53;81.92
72892;BME280;61032;50.782;6.818;2023-10-09T04:39:16;100934.69;;;15.51;81.97
72892;BME280;61032;50.782;6.818;2023-10-09T04:40:25;100937.44;;;15.51;81.67
72892;BME280;61032;50.782;6.818;2023-10-09T04:41:48;100936.06;;;15.45;81.96
72892;BME280;61032;50.782;6.818;2023-10-09T04:42:48;100932.16;;;15.46;81.50
72892;BME280;61032;50.782;6.818;2023-10-09T04:44:04;100925.00;;;15.45;82.02
72892;BME280;61032;50.782;6.818;2023-10-09T04:45:22;100926.50;;;15.42;82.21
72892;BME280;61032;50.782;6.818;2023-10-09T04:46:46;100919.63;;;15.36;82.26
72892;BME280;61032;50.782;6.818;2023-10-09T04:48:13;100924.69;;;15.34;82.52
72892;BME280;61032;50.782;6.818;2023-10-09T04:49:33;100928.53;;;15.30;82.81
72892;BME280;61032;50.782;6.818;2023-10-09T04:50:50;100919.06;;;15.31;82.93
72892;BME280;61032;50.782;6.818;2023-10-09T04:52:08;100925.28;;;15.28;82.93
72892;BME280;61032;50.782;6.818;2023-10-09T04:53:18;100927.00;;;15.32;82.89
72892;BME280;61032;50.782;6.818;2023-10-09T04:54:18;100934.97;;;15.34;82.62
72892;BME280;61032;50.782;6.818;2023-10-09T04:55:33;100927.00;;;15.32;82.92
72892;BME280;61032;50.782;6.818;2023-10-09T04:56:40;100921.59;;;15.36;82.94
72892;BME280;61032;50.782;6.818;2023-10-09T04:57:52;100923.09;;;15.33;83.07
72892;BME280;61032;50.782;6.818;2023-10-09T04:59:02;100925.06;;;15.33;83.11
72892;BME280;61032;50.782;6.818;2023-10-09T05:00:11;100927.47;;;15.34;83.38
72892;BME280;61032;50.782;6.818;2023-10-09T05:01:26;100919.16;;;15.34;83.31
72892;BME280;61032;50.782;6.818;2023-10-09T05:02:36;100922.75;;;15.35;83.40
72892;BME280;61032;50.782;6.818;2023-10-09T05:03:37;100913.63;;;15.34;83.13
72892;BME280;61032;50.782;6.818;2023-10-09T05:04:40;100912.47;;;15.35;83.11
72892;BME280;61032;50.782;6.818;2023-10-09T05:05:42;100916.03;;;15.36;83.32
72892;BME280;61032;50.782;6.818;2023-10-09T05:06:42;100913.63;;;15.34;83.31
72892;BME280;61032;50.782;6.818;2023-10-09T05:07:42;100919.50;;;15.33;82.88
72892;BME280;61032;50.782;6.818;2023-10-09T05:08:55;100911.19;;;15.33;83.12
72892;BME280;61032;50.782;6.818;2023-10-09T05:09:55;100911.31;;;15.36;83.37
72892;BME280;61032;50.782;6.818;2023-10-09T05:11:00;100911.31;;;15.36;82.98
72892;BME280;61032;50.782;6.818;2023-10-09T05:12:01;100909.75;;;15.39;82.77
72892;BME280;61032;50.782;6.818;2023-10-09T05:13:09;100916.50;;;15.38;82.83
72892;BME280;61032;50.782;6.818;2023-10-09T05:14:13;100919.25;;;15.38;82.85
72892;BME280;61032;50.782;6.818;2023-10-09T05:15:14;100922.47;;;15.40;82.65
72892;BME280;61032;50.782;6.818;2023-10-09T05:16:15;100925.34;;;15.43;82.65
72892;BME280;61032;50.782;6.818;2023-10-09T05:17:16;100928.91;;;15.44;82.34
72892;BME280;61032;50.782;6.818;2023-10-09T05:18:16;100929.28;;;15.42;82.53
72892;BME280;61032;50.782;6.818;2023-10-09T05:19:17;100926.38;;;15.39;82.97
72892;BME280;61032;50.782;6.818;2023-10-09T05:20:29;100924.81;;;15.38;83.14
72892;BME280;61032;50.782;6.818;2023-10-09T05:21:50;100924.34;;;15.36;83.09
72892;BME280;61032;50.782;6.818;2023-10-09T05:22:52;100918.81;;;15.36;83.23
72892;BME280;61032;50.782;6.818;2023-10-09T05:24:15;100927.00;;;15.32;83.46
72892;BME280;61032;50.782;6.818;2023-10-09T05:25:15;100919.97;;;15.35;83.43
72892;BME280;61032;50.782;6.818;2023-10-09T05:26:30;100926.56;;;15.30;83.73
72892;BME280;61032;50.782;6.818;2023-10-09T05:27:48;100925.63;;;15.26;83.78
72892;BME280;61032;50.782;6.818;2023-10-09T05:28:51;100927.50;;;15.22;84.04
72892;BME280;61032;50.782;6.818;2023-10-09T05:29:52;100929.22;;;15.27;83.81
72892;BME280;61032;50.782;6.818;2023-10-09T05:31:21;100929.91;;;15.24;84.03
72892;BME280;61032;50.782;6.818;2023-10-09T05:32:45;100919.63;;;15.24;84.18
72892;BME280;61032;50.782;6.818;2023-10-09T05:33:48;100931.88;;;15.23;83.92
72892;BME280;61032;50.782;6.818;2023-10-09T05:34:53;100936.72;;;15.26;84.13
72892;BME280;61032;50.782;6.818;2023-10-09T05:36:01;100923.31;;;15.28;83.69
72892;BME280;61032;50.782;6.818;2023-10-09T05:37:22;100926.44;;;15.27;83.93
72892;BME280;61032;50.782;6.818;2023-10-09T05:38:25;100915.81;;;15.29;83.73
72892;BME280;61032;50.782;6.818;2023-10-09T05:39:25;100915.00;;;15.28;83.73
72892;BME280;61032;50.782;6.818;2023-10-09T05:40:44;100912.59;;;15.27;83.68
72892;BME280;61032;50.782;6.818;2023-10-09T05:41:53;100910.19;;;15.25;83.73
72892;BME280;61032;50.782;6.818;2023-10-09T05:42:59;100907.06;;;15.27;83.67
72892;BME280;61032;50.782;6.818;2023-10-09T05:44:02;100909.47;;;15.28;83.54
72892;BME280;61032;50.782;6.818;2023-10-09T05:45:21;100915.00;;;15.28;83.67